Time;durP1;ratioP1;P1;durP2;ratioP2;P2;SDS_P1;SDS_P2;PMS_P1;PMS_P2;Temp;Humidity;BMP_temperature;BMP_pressure;BME280_temperature;BME280_humidity;BME280_pressure;Samples;Min_cycle;Max_cycle;Signal;HPM_P1;HPM_P2
2021/12/12 00:00:36;;;;;;;4.75;2.33;;;;;;;;;;5013686;28;20033;-62
2021/12/12 00:03:15;;;;;;;7.05;2.53;;;;;;;;;;5012647;28;20535;-62
2021/12/12 00:05:43;;;;;;;7.03;3.17;;;;;;;;;;5013854;28;20092;-62
2021/12/12 00:08:10;;;;;;;8.90;2.72;;;;;;;;;;5012698;28;20376;-62
2021/12/12 00:10:37;;;;;;;6.97;3.10;;;;;;;;;;5013834;28;20081;-62
2021/12/12 00:13:06;;;;;;;4.63;2.13;;;;;;;;;;5012799;28;20049;-62
2021/12/12 00:15:32;;;;;;;3.78;2.10;;;;;;;;;;5013497;28;20026;-61
2021/12/12 00:17:58;;;;;;;3.95;2.22;;;;;;;;;;5012798;28;20033;-68
2021/12/12 00:20:26;;;;;;;5.03;3.08;;;;;;;;;;5013391;28;20023;-62
2021/12/12 00:22:55;;;;;;;4.97;2.80;;;;;;;;;;5012953;28;20022;-61
2021/12/12 00:25:21;;;;;;;4.88;2.30;;;;;;;;;;5012701;28;20101;-61
2021/12/12 00:27:47;;;;;;;5.25;2.22;;;;;;;;;;5012787;28;20037;-61
2021/12/12 00:30:14;;;;;;;5.50;2.10;;;;;;;;;;5012708;28;20101;-61
2021/12/12 00:32:40;;;;;;;2.70;1.45;;;;;;;;;;5013159;28;20034;-61
2021/12/12 00:35:11;;;;;;;5.55;2.38;;;;;;;;;;5012417;28;20026;-61
2021/12/12 00:37:38;;;;;;;4.68;2.38;;;;;;;;;;5012818;28;20064;-61
2021/12/12 00:40:09;;;;;;;5.30;2.63;;;;;;;;;;5012610;28;20017;-63
2021/12/12 00:42:36;;;;;;;4.40;2.42;;;;;;;;;;5013172;28;20105;-62
2021/12/12 00:45:05;;;;;;;4.50;1.98;;;;;;;;;;5012376;28;20036;-62
2021/12/12 00:47:31;;;;;;;2.78;1.75;;;;;;;;;;5012522;28;20033;-61
2021/12/12 00:49:57;;;;;;;5.10;2.38;;;;;;;;;;5012935;28;20032;-61
2021/12/12 00:52:23;;;;;;;4.35;1.80;;;;;;;;;;5012537;28;20029;-62
2021/12/12 00:54:50;;;;;;;5.60;2.10;;;;;;;;;;5011570;28;20041;-61
2021/12/12 00:57:18;;;;;;;3.80;1.95;;;;;;;;;;5011776;28;20107;-61
2021/12/12 00:59:46;;;;;;;4.15;1.63;;;;;;;;;;5013034;28;20030;-61
2021/12/12 01:02:15;;;;;;;3.85;2.25;;;;;;;;;;5012423;28;20533;-61
2021/12/12 01:04:44;;;;;;;3.13;1.88;;;;;;;;;;5013075;28;20072;-61
2021/12/12 01:07:13;;;;;;;4.47;1.90;;;;;;;;;;5012126;28;20065;-61
2021/12/12 01:09:42;;;;;;;4.65;1.73;;;;;;;;;;5012653;28;20034;-61
2021/12/12 01:12:10;;;;;;;3.97;2.00;;;;;;;;;;5011871;28;20076;-61
2021/12/12 01:14:41;;;;;;;3.10;1.88;;;;;;;;;;5012546;28;20383;-61
2021/12/12 01:17:12;;;;;;;3.58;1.90;;;;;;;;;;5012182;28;20022;-62
2021/12/12 01:19:44;;;;;;;3.15;1.80;;;;;;;;;;5012512;28;20398;-61
2021/12/12 01:22:16;;;;;;;3.13;2.13;;;;;;;;;;5012037;28;20104;-61
2021/12/12 01:24:44;;;;;;;;;;;;;;;;;;5013018;28;20022;-61
2021/12/12 01:27:11;;;;;;;2.85;1.80;;;;;;;;;;5012052;28;20277;-61
2021/12/12 01:29:38;;;;;;;1.90;1.60;;;;;;;;;;5012508;28;20038;-61
2021/12/12 01:32:11;;;;;;;3.08;1.80;;;;;;;;;;5011728;28;20068;-62
2021/12/12 01:34:37;;;;;;;3.85;2.05;;;;;;;;;;5012336;28;20026;-61
2021/12/12 01:38:51;;;;;;;3.38;1.85;;;;;;;;;;5011663;28;20509;-62
2021/12/12 01:39:58;;;;;;;2.95;1.50;;;;;;;;;;5004697;28;20030;-61
2021/12/12 01:42:34;;;;;;;3.72;1.58;;;;;;;;;;5011507;28;20022;-62
2021/12/12 01:45:00;;;;;;;2.78;1.83;;;;;;;;;;5012266;28;20029;-61
2021/12/12 01:47:38;;;;;;;4.90;1.70;;;;;;;;;;5012306;28;20026;-61
2021/12/12 01:50:10;;;;;;;2.42;1.52;;;;;;;;;;5014647;28;20038;-61
2021/12/12 01:52:36;;;;;;;3.08;1.88;;;;;;;;;;5015798;28;20026;-61
2021/12/12 01:55:11;;;;;;;2.60;1.83;;;;;;;;;;5015634;28;20472;-61
2021/12/12 01:57:37;;;;;;;3.80;1.70;;;;;;;;;;5015361;28;20107;-61
2021/12/12 02:00:11;;;;;;;2.42;1.55;;;;;;;;;;5015180;28;20490;-61
2021/12/12 02:02:38;;;;;;;2.38;1.50;;;;;;;;;;5015653;28;20034;-62
2021/12/12 02:05:10;;;;;;;4.55;2.10;;;;;;;;;;5015169;28;20057;-62
2021/12/12 02:07:38;;;;;;;2.13;1.50;;;;;;;;;;5015716;28;20113;-65
2021/12/12 02:10:07;;;;;;;1.98;1.35;;;;;;;;;;5015096;28;20037;-62
2021/12/12 02:12:33;;;;;;;2.35;1.60;;;;;;;;;;5015397;28;20033;-62
2021/12/12 02:14:59;;;;;;;2.60;1.30;;;;;;;;;;5015519;28;20491;-61
2021/12/12 02:17:35;;;;;;;2.88;1.60;;;;;;;;;;5014881;28;20430;-61
2021/12/12 02:20:16;;;;;;;3.33;1.50;;;;;;;;;;5015361;28;20109;-70
2021/12/12 02:23:28;;;;;;;3.30;1.92;;;;;;;;;;5015477;28;20033;-61
2021/12/12 02:36:37;;;;;;;2.45;1.52;;;;;;;;;;5015229;28;20140;-62
2021/12/12 02:39:08;;;;;;;1.85;1.30;;;;;;;;;;5014683;28;20033;-62
2021/12/12 02:41:34;;;;;;;2.20;1.45;;;;;;;;;;5015536;28;20021;-61
2021/12/12 02:44:02;;;;;;;2.15;1.60;;;;;;;;;;5014481;28;20384;-61
2021/12/12 02:46:32;;;;;;;2.53;1.30;;;;;;;;;;5015276;28;20034;-62
2021/12/12 02:49:06;;;;;;;1.50;1.02;;;;;;;;;;5014798;28;20482;-62
2021/12/12 02:51:32;;;;;;;1.63;1.23;;;;;;;;;;5015023;28;20014;-61
2021/12/12 02:53:59;;;;;;;2.75;1.40;;;;;;;;;;5014531;28;20058;-62
2021/12/12 02:56:28;;;;;;;2.65;1.20;;;;;;;;;;5014105;28;20096;-62
2021/12/12 02:58:55;;;;;;;2.30;1.40;;;;;;;;;;5014824;28;20470;-62
2021/12/12 03:01:27;;;;;;;2.30;1.30;;;;;;;;;;5014255;28;20030;-62
2021/12/12 03:03:54;;;;;;;3.38;1.58;;;;;;;;;;5014501;28;20241;-63
2021/12/12 03:06:22;;;;;;;2.17;1.20;;;;;;;;;;5014162;28;20029;-62
2021/12/12 03:08:50;;;;;;;1.52;0.95;;;;;;;;;;5014995;28;20034;-62
2021/12/12 03:11:16;;;;;;;2.45;1.40;;;;;;;;;;5014058;28;20029;-61
2021/12/12 03:13:44;;;;;;;2.15;1.10;;;;;;;;;;5014722;28;20026;-62
2021/12/12 03:16:10;;;;;;;1.63;0.95;;;;;;;;;;5014447;28;20029;-62
2021/12/12 03:18:39;;;;;;;2.80;1.17;;;;;;;;;;5014058;28;20483;-63
2021/12/12 03:21:14;;;;;;;2.45;1.02;;;;;;;;;;5004534;28;20026;-62
2021/12/12 03:23:41;;;;;;;2.67;1.30;;;;;;;;;;5005025;28;20027;-62
2021/12/12 03:26:10;;;;;;;3.00;1.48;;;;;;;;;;5001388;28;20038;-62
2021/12/12 03:28:37;;;;;;;1.63;1.02;;;;;;;;;;5002658;28;20082;-62
2021/12/12 03:31:05;;;;;;;2.22;0.98;;;;;;;;;;5002941;28;20022;-63
2021/12/12 03:33:32;;;;;;;2.22;1.58;;;;;;;;;;5004311;28;20030;-61
2021/12/12 03:35:59;;;;;;;3.40;1.67;;;;;;;;;;5002056;28;20018;-62
2021/12/12 03:38:27;;;;;;;1.80;1.10;;;;;;;;;;5006783;28;20104;-66
2021/12/12 03:40:54;;;;;;;1.98;1.02;;;;;;;;;;5001988;28;20027;-62
2021/12/12 03:43:20;;;;;;;1.35;1.02;;;;;;;;;;5006550;28;20026;-61
2021/12/12 03:45:46;;;;;;;1.65;1.17;;;;;;;;;;5004390;28;20030;-61
2021/12/12 03:48:19;;;;;;;2.08;0.80;;;;;;;;;;5003254;28;20080;-62
2021/12/12 03:50:46;;;;;;;3.05;1.10;;;;;;;;;;5001111;28;20033;-61
2021/12/12 03:53:13;;;;;;;2.63;1.05;;;;;;;;;;5005998;28;20426;-62
2021/12/12 03:55:40;;;;;;;1.85;0.90;;;;;;;;;;5001375;28;20039;-62
2021/12/12 03:58:06;;;;;;;1.08;0.75;;;;;;;;;;5004164;28;20033;-62
2021/12/12 04:00:36;;;;;;;1.77;0.93;;;;;;;;;;5003918;28;20492;-62
2021/12/12 04:03:02;;;;;;;1.45;0.90;;;;;;;;;;5004274;28;20113;-62
2021/12/12 04:05:28;;;;;;;4.22;1.45;;;;;;;;;;5003131;28;20038;-63
2021/12/12 04:07:55;;;;;;;2.50;1.30;;;;;;;;;;5019319;28;20108;-62
2021/12/12 04:10:23;;;;;;;2.10;1.00;;;;;;;;;;5002727;28;20030;-68
2021/12/12 04:12:51;;;;;;;1.52;0.80;;;;;;;;;;5005529;28;20125;-62
2021/12/12 04:15:17;;;;;;;1.58;0.85;;;;;;;;;;5003578;28;20022;-61
2021/12/12 04:17:44;;;;;;;1.50;1.10;;;;;;;;;;5013489;28;20033;-62
2021/12/12 04:20:15;;;;;;;1.73;0.98;;;;;;;;;;5012808;28;20026;-61
2021/12/12 04:22:41;;;;;;;1.70;0.93;;;;;;;;;;5013443;28;20434;-61
2021/12/12 04:25:08;;;;;;;0.90;0.80;;;;;;;;;;5012138;28;20026;-62
2021/12/12 04:27:34;;;;;;;1.25;0.75;;;;;;;;;;5012877;28;20080;-61
2021/12/12 04:30:03;;;;;;;1.70;1.00;;;;;;;;;;5013391;28;20029;-62
2021/12/12 04:32:30;;;;;;;1.35;0.93;;;;;;;;;;5012434;28;20058;-61
2021/12/12 04:35:01;;;;;;;1.70;1.08;;;;;;;;;;5013302;28;20056;-61
2021/12/12 04:37:27;;;;;;;2.58;1.23;;;;;;;;;;5012123;28;20029;-61
2021/12/12 04:39:56;;;;;;;1.10;0.80;;;;;;;;;;5013260;28;20125;-61
2021/12/12 04:42:31;;;;;;;1.52;0.95;;;;;;;;;;5012320;28;20022;-61
2021/12/12 04:45:17;;;;;;;1.40;1.08;;;;;;;;;;5013079;28;20029;-62
2021/12/12 04:50:45;;;;;;;1.20;0.90;;;;;;;;;;5012837;28;20041;-61
2021/12/12 04:53:17;;;;;;;2.25;0.88;;;;;;;;;;5012218;28;20029;-61
2021/12/12 04:56:02;;;;;;;2.38;0.88;;;;;;;;;;5012684;28;20054;-62
2021/12/12 04:58:28;;;;;;;1.30;0.90;;;;;;;;;;5012303;28;20034;-62
2021/12/12 05:01:06;;;;;;;1.52;1.13;;;;;;;;;;5012671;28;20095;-62
2021/12/12 05:03:41;;;;;;;1.70;1.10;;;;;;;;;;5013069;28;20029;-61
2021/12/12 05:06:30;;;;;;;1.17;0.80;;;;;;;;;;5011803;28;20034;-61
2021/12/12 05:09:00;;;;;;;1.38;0.70;;;;;;;;;;5002012;28;20046;-61
2021/12/12 05:11:26;;;;;;;2.08;0.90;;;;;;;;;;5011930;28;20033;-61
2021/12/12 05:13:59;;;;;;;1.42;0.90;;;;;;;;;;5012506;28;20068;-61
2021/12/12 05:16:28;;;;;;;2.45;1.17;;;;;;;;;;5011810;28;20080;-63
2021/12/12 05:19:03;;;;;;;1.35;0.70;;;;;;;;;;5012461;28;20371;-62
2021/12/12 05:21:30;;;;;;;1.00;0.80;;;;;;;;;;5011806;28;20025;-62
2021/12/12 05:23:59;;;;;;;1.75;0.93;;;;;;;;;;5011422;28;20113;-61
2021/12/12 05:26:31;;;;;;;0.82;0.75;;;;;;;;;;5011509;28;20526;-62
2021/12/12 05:29:00;;;;;;;1.27;0.82;;;;;;;;;;5012616;28;20041;-61
2021/12/12 05:31:27;;;;;;;1.20;0.80;;;;;;;;;;5011465;28;20033;-62
2021/12/12 05:33:53;;;;;;;1.58;0.93;;;;;;;;;;5012593;28;20025;-61
2021/12/12 05:36:20;;;;;;;1.08;0.70;;;;;;;;;;5011745;28;20188;-61
2021/12/12 05:38:47;;;;;;;1.10;0.90;;;;;;;;;;5012134;28;20026;-61
2021/12/12 05:41:14;;;;;;;1.05;0.65;;;;;;;;;;5011624;28;20081;-66
2021/12/12 05:43:40;;;;;;;1.00;0.80;;;;;;;;;;5012389;28;20050;-66
2021/12/12 05:46:06;;;;;;;0.95;0.77;;;;;;;;;;5011948;28;20030;-63
2021/12/12 05:48:33;;;;;;;1.70;0.85;;;;;;;;;;5012056;28;20104;-61
2021/12/12 05:51:00;;;;;;;1.38;0.60;;;;;;;;;;5012282;28;20034;-61
2021/12/12 05:53:26;;;;;;;1.05;0.63;;;;;;;;;;5011531;28;20054;-61
2021/12/12 05:55:52;;;;;;;1.40;0.88;;;;;;;;;;5012162;28;20483;-61
2021/12/12 05:58:20;;;;;;;1.27;0.80;;;;;;;;;;5011659;28;20037;-61
2021/12/12 06:01:06;;;;;;;2.20;1.38;;;;;;;;;;5011927;28;20105;-61
2021/12/12 06:03:36;;;;;;;0.95;0.80;;;;;;;;;;5011994;28;20030;-61
2021/12/12 06:06:04;;;;;;;0.88;0.80;;;;;;;;;;5011430;28;20475;-61
2021/12/12 06:08:30;;;;;;;1.23;0.85;;;;;;;;;;5011492;28;20030;-61
2021/12/12 06:10:57;;;;;;;0.88;0.60;;;;;;;;;;5011950;28;20073;-61
2021/12/12 06:13:24;;;;;;;1.30;1.00;;;;;;;;;;5011452;28;20069;-61
2021/12/12 06:15:53;;;;;;;1.30;0.95;;;;;;;;;;5012407;28;20494;-61
2021/12/12 06:18:20;;;;;;;1.77;0.88;;;;;;;;;;5011311;28;20076;-61
2021/12/12 06:20:46;;;;;;;0.85;0.68;;;;;;;;;;5011880;28;20026;-61
2021/12/12 06:23:13;;;;;;;1.35;0.65;;;;;;;;;;5011323;28;20099;-62
2021/12/12 06:25:39;;;;;;;1.10;0.95;;;;;;;;;;5011948;28;20034;-61
2021/12/12 06:28:10;;;;;;;1.10;0.75;;;;;;;;;;5011641;28;20041;-61
2021/12/12 06:30:36;;;;;;;2.17;0.80;;;;;;;;;;5011810;28;20030;-61
2021/12/12 06:33:02;;;;;;;0.65;0.65;;;;;;;;;;5011816;28;20026;-61
2021/12/12 06:35:28;;;;;;;1.38;0.82;;;;;;;;;;5012616;28;20033;-61
2021/12/12 06:37:54;;;;;;;0.88;0.63;;;;;;;;;;5014736;28;20092;-62
2021/12/12 06:40:21;;;;;;;1.75;0.70;;;;;;;;;;5014703;28;20057;-61
2021/12/12 06:42:49;;;;;;;0.98;0.80;;;;;;;;;;5015188;28;20061;-61
2021/12/12 06:45:15;;;;;;;1.02;0.60;;;;;;;;;;5007788;28;20030;-61
2021/12/12 06:47:41;;;;;;;1.05;0.60;;;;;;;;;;5004423;28;20034;-63
2021/12/12 06:50:08;;;;;;;1.55;0.80;;;;;;;;;;5006972;28;20374;-61
2021/12/12 06:52:34;;;;;;;0.90;0.63;;;;;;;;;;5004320;28;20061;-62
2021/12/12 06:55:00;;;;;;;1.13;0.70;;;;;;;;;;5004481;28;20072;-62
2021/12/12 06:57:27;;;;;;;0.95;0.70;;;;;;;;;;5004480;28;20457;-61
2021/12/12 06:59:54;;;;;;;1.02;0.60;;;;;;;;;;5005292;28;20037;-67
2021/12/12 07:02:20;;;;;;;1.08;0.80;;;;;;;;;;5004965;28;20027;-63
2021/12/12 07:04:46;;;;;;;0.77;0.60;;;;;;;;;;5005076;28;20019;-61
2021/12/12 07:07:13;;;;;;;1.13;0.85;;;;;;;;;;5003285;28;20088;-62
2021/12/12 07:09:39;;;;;;;1.67;0.80;;;;;;;;;;5004033;28;20072;-61
2021/12/12 07:12:07;;;;;;;1.45;0.60;;;;;;;;;;5003593;28;20025;-62
2021/12/12 07:14:34;;;;;;;1.90;0.80;;;;;;;;;;5004004;28;20018;-66
2021/12/12 07:17:00;;;;;;;1.02;0.75;;;;;;;;;;5003341;28;20022;-68
2021/12/12 07:19:27;;;;;;;0.63;0.52;;;;;;;;;;5005271;28;20072;-62
2021/12/12 07:21:53;;;;;;;1.13;0.93;;;;;;;;;;5007174;28;20030;-62
2021/12/12 07:24:19;;;;;;;1.13;0.60;;;;;;;;;;5007581;28;20033;-61
2021/12/12 07:26:46;;;;;;;0.50;0.50;;;;;;;;;;5005046;28;20026;-62
2021/12/12 07:29:12;;;;;;;2.28;1.00;;;;;;;;;;4998624;28;20057;-63
2021/12/12 07:31:39;;;;;;;1.45;0.73;;;;;;;;;;4994874;28;20019;-65
2021/12/12 07:34:08;;;;;;;0.85;0.80;;;;;;;;;;5010062;28;20034;-65
2021/12/12 07:36:35;;;;;;;4.75;0.70;;;;;;;;;;5002247;28;20022;-64
2021/12/12 07:39:05;;;;;;;2.45;1.02;;;;;;;;;;5005871;28;20379;-59
2021/12/12 07:41:32;;;;;;;3.20;1.25;;;;;;;;;;5002819;28;20072;-57
2021/12/12 07:43:59;;;;;;;2.53;1.05;;;;;;;;;;5005865;28;20026;-50
2021/12/12 07:46:26;;;;;;;1.63;0.82;;;;;;;;;;5000894;28;20033;-52
2021/12/12 07:48:53;;;;;;;1.85;1.10;;;;;;;;;;4999277;28;20040;-57
2021/12/12 07:51:20;;;;;;;3.08;0.90;;;;;;;;;;5012846;28;20493;-53
2021/12/12 07:53:49;;;;;;;2.35;1.20;;;;;;;;;;5013498;28;20463;-53
2021/12/12 07:56:16;;;;;;;2.80;1.42;;;;;;;;;;5012616;28;20426;-52
2021/12/12 07:58:42;;;;;;;4.30;1.73;;;;;;;;;;5013658;28;20026;-53
2021/12/12 08:01:08;;;;;;;9.90;2.25;;;;;;;;;;5013609;28;20104;-53
2021/12/12 08:03:36;;;;;;;5.80;1.25;;;;;;;;;;5010322;28;20029;-57
2021/12/12 08:06:02;;;;;;;6.53;1.20;;;;;;;;;;5013771;28;20100;-51
2021/12/12 08:08:28;;;;;;;6.03;2.03;;;;;;;;;;5012870;28;20132;-60
2021/12/12 08:10:56;;;;;;;6.03;1.38;;;;;;;;;;5013729;28;20383;-58
2021/12/12 08:13:22;;;;;;;5.88;1.25;;;;;;;;;;5012807;28;20033;-54
2021/12/12 08:15:48;;;;;;;4.30;0.90;;;;;;;;;;5011728;28;20022;-59
2021/12/12 08:18:16;;;;;;;4.60;1.50;;;;;;;;;;5011567;28;20040;-59
2021/12/12 08:20:44;;;;;;;1.88;1.10;;;;;;;;;;5013793;28;20494;-59
2021/12/12 08:23:10;;;;;;;3.40;1.13;;;;;;;;;;5012867;28;20022;-59
2021/12/12 08:25:37;;;;;;;2.13;0.88;;;;;;;;;;5013181;28;20104;-59
2021/12/12 08:28:05;;;;;;;4.88;1.10;;;;;;;;;;5012825;28;20030;-59
2021/12/12 08:30:31;;;;;;;4.72;1.15;;;;;;;;;;5012564;28;20034;-58
2021/12/12 08:32:57;;;;;;;7.65;1.15;;;;;;;;;;5013032;28;20029;-59
2021/12/12 08:35:24;;;;;;;6.75;1.10;;;;;;;;;;5012754;28;20045;-59
2021/12/12 08:37:51;;;;;;;2.30;0.80;;;;;;;;;;5013249;28;20046;-58
2021/12/12 08:40:19;;;;;;;4.55;1.27;;;;;;;;;;5019132;28;20032;-59
2021/12/12 08:42:46;;;;;;;4.07;1.35;;;;;;;;;;5013036;28;20036;-60
2021/12/12 08:45:13;;;;;;;4.82;1.13;;;;;;;;;;5012293;28;20044;-61
2021/12/12 08:47:39;;;;;;;1.50;1.00;;;;;;;;;;5012464;28;20501;-60
2021/12/12 08:50:07;;;;;;;3.78;1.10;;;;;;;;;;5012514;28;20036;-59
2021/12/12 08:52:38;;;;;;;4.35;0.98;;;;;;;;;;5012165;28;20049;-59
2021/12/12 08:55:07;;;;;;;3.97;1.30;;;;;;;;;;5012732;28;20025;-59
2021/12/12 08:57:47;;;;;;;4.53;1.20;;;;;;;;;;5011286;28;20096;-59
2021/12/12 09:00:16;;;;;;;2.55;1.10;;;;;;;;;;5011911;28;20029;-60
2021/12/12 09:02:43;;;;;;;4.43;1.42;;;;;;;;;;5012526;28;20379;-58
2021/12/12 09:05:14;;;;;;;5.25;1.27;;;;;;;;;;5000669;28;20493;-58
2021/12/12 09:07:42;;;;;;;5.03;0.95;;;;;;;;;;5013770;28;20030;-59
2021/12/12 09:10:11;;;;;;;5.68;1.10;;;;;;;;;;5011939;28;20100;-62
2021/12/12 09:12:40;;;;;;;1.67;0.88;;;;;;;;;;5011663;28;20076;-56
2021/12/12 09:15:16;;;;;;;3.17;1.05;;;;;;;;;;5012158;28;20039;-58
2021/12/12 09:17:45;;;;;;;3.05;0.75;;;;;;;;;;5012546;28;20037;-58
2021/12/12 09:20:34;;;;;;;18.90;7.75;;;;;;;;;;5012127;28;20026;-58
2021/12/12 09:23:21;;;;;;;25.08;8.05;;;;;;;;;;5012396;28;20022;-58
2021/12/12 09:25:57;;;;;;;16.88;6.97;;;;;;;;;;5012578;28;20034;-59
2021/12/12 09:28:23;;;;;;;14.10;5.80;;;;;;;;;;5011491;28;20517;-56
2021/12/12 09:30:50;;;;;;;34.97;15.05;;;;;;;;;;5012052;28;20065;-58
2021/12/12 09:33:27;;;;;;;54.30;21.90;;;;;;;;;;5011652;28;20025;-58
2021/12/12 09:36:00;;;;;;;51.88;24.88;;;;;;;;;;5011236;28;20132;-57
2021/12/12 09:38:41;;;;;;;58.50;26.23;;;;;;;;;;5011789;28;20030;-59
2021/12/12 09:41:09;;;;;;;64.40;25.75;;;;;;;;;;5011812;28;20026;-56
2021/12/12 09:43:35;;;;;;;63.47;25.77;;;;;;;;;;5011535;28;20030;-56
2021/12/12 09:46:01;;;;;;;54.33;23.42;;;;;;;;;;5012274;28;20121;-57
2021/12/12 09:51:53;;;;;;;58.45;23.25;;;;;;;;;;5011502;28;20050;-58
2021/12/12 09:54:28;;;;;;;49.67;22.10;;;;;;;;;;5012031;28;20038;-57
2021/12/12 09:57:06;;;;;;;38.90;17.30;;;;;;;;;;5011862;28;20046;-58
2021/12/12 09:59:50;;;;;;;36.65;19.23;;;;;;;;;;4995480;28;20030;-57
2021/12/12 10:02:35;;;;;;;39.38;16.52;;;;;;;;;;5011661;28;20033;-58
2021/12/12 10:05:04;;;;;;;30.52;14.65;;;;;;;;;;5000463;28;20050;-58
2021/12/12 10:07:46;;;;;;;34.60;14.73;;;;;;;;;;5007546;28;20036;-57
2021/12/12 10:10:12;;;;;;;;;;;;;;;;;;5013842;28;20494;-58
2021/12/12 10:12:44;;;;;;;32.78;13.75;;;;;;;;;;5015223;28;19913;-58
2021/12/12 10:15:21;;;;;;;25.23;12.05;;;;;;;;;;5015954;28;20022;-58
2021/12/12 10:17:47;;;;;;;23.70;11.93;;;;;;;;;;5015974;28;20546;-58
2021/12/12 10:20:25;;;;;;;22.92;11.40;;;;;;;;;;5015343;28;20022;-58
2021/12/12 10:22:51;;;;;;;21.58;11.20;;;;;;;;;;5015576;28;20084;-58
2021/12/12 10:25:35;;;;;;;25.48;10.90;;;;;;;;;;5015003;28;20030;-59
2021/12/12 10:28:19;;;;;;;21.90;10.23;;;;;;;;;;5015641;28;20042;-58
2021/12/12 10:31:06;;;;;;;21.65;10.52;;;;;;;;;;5015269;28;20153;-58
2021/12/12 10:33:44;;;;;;;22.40;10.60;;;;;;;;;;5014785;28;20021;-58
2021/12/12 10:36:12;;;;;;;29.35;9.82;;;;;;;;;;5012798;28;20034;-57
2021/12/12 10:38:42;;;;;;;20.85;10.38;;;;;;;;;;5014651;28;20030;-57
2021/12/12 10:41:11;;;;;;;20.10;9.52;;;;;;;;;;5015035;28;20080;-58
2021/12/12 10:43:40;;;;;;;22.02;9.43;;;;;;;;;;5014528;28;20034;-57
2021/12/12 10:46:08;;;;;;;18.40;8.80;;;;;;;;;;5015100;28;20422;-57
2021/12/12 10:48:54;;;;;;;17.65;8.93;;;;;;;;;;5014286;28;20081;-58
2021/12/12 10:51:22;;;;;;;18.85;8.25;;;;;;;;;;4974016;28;20069;-59
2021/12/12 10:53:48;;;;;;;22.63;8.93;;;;;;;;;;4998112;28;20026;-59
2021/12/12 10:56:18;;;;;;;19.27;8.13;;;;;;;;;;5014770;28;20100;-59
2021/12/12 10:58:47;;;;;;;16.45;8.15;;;;;;;;;;5015186;28;20026;-59
2021/12/12 11:01:17;;;;;;;16.85;7.90;;;;;;;;;;5014511;28;20032;-59
2021/12/12 11:03:50;;;;;;;16.50;8.00;;;;;;;;;;5015236;28;20114;-60
2021/12/12 11:06:20;;;;;;;16.05;7.63;;;;;;;;;;5012647;28;20041;-59
2021/12/12 11:08:46;;;;;;;16.63;7.28;;;;;;;;;;5015046;28;20047;-59
2021/12/12 11:11:15;;;;;;;15.68;6.95;;;;;;;;;;5014330;28;20037;-58
2021/12/12 11:13:48;;;;;;;14.27;6.95;;;;;;;;;;5013397;28;20410;-58
2021/12/12 11:16:21;;;;;;;13.10;7.03;;;;;;;;;;5015419;28;20025;-57
2021/12/12 11:18:49;;;;;;;15.38;7.03;;;;;;;;;;5016631;28;20149;-71
2021/12/12 11:21:24;;;;;;;15.98;7.55;;;;;;;;;;5014372;28;20049;-68
2021/12/12 11:24:00;;;;;;;16.45;6.45;;;;;;;;;;5014339;28;20101;-67
2021/12/12 11:26:29;;;;;;;12.63;6.25;;;;;;;;;;5003067;28;20374;-70
2021/12/12 11:28:58;;;;;;;14.30;6.45;;;;;;;;;;5006012;28;20030;-67
2021/12/12 11:31:26;;;;;;;11.38;6.07;;;;;;;;;;5007120;28;20035;-69
2021/12/12 11:33:54;;;;;;;11.98;6.03;;;;;;;;;;5004018;28;20025;-67
2021/12/12 11:36:22;;;;;;;12.55;6.25;;;;;;;;;;5013301;28;20424;-68
2021/12/12 11:38:53;;;;;;;11.32;5.70;;;;;;;;;;5014300;28;20030;-69
2021/12/12 11:41:39;;;;;;;13.93;5.43;;;;;;;;;;5013478;28;20038;-68
2021/12/12 11:44:15;;;;;;;11.20;5.85;;;;;;;;;;5009935;28;20029;-68
2021/12/12 11:47:07;;;;;;;9.48;5.25;;;;;;;;;;5013565;28;20068;-69
2021/12/12 11:49:40;;;;;;;13.25;5.95;;;;;;;;;;5012468;28;20042;-73
2021/12/12 11:52:09;;;;;;;9.02;4.85;;;;;;;;;;5013530;28;20093;-73
2021/12/12 11:54:35;;;;;;;12.18;5.07;;;;;;;;;;5013274;28;20080;-73
2021/12/12 11:57:10;;;;;;;8.43;4.90;;;;;;;;;;5013913;28;20054;-73
2021/12/12 11:59:53;;;;;;;13.00;5.38;;;;;;;;;;5013678;28;20506;-73
2021/12/12 12:02:19;;;;;;;9.88;4.20;;;;;;;;;;5011392;28;20018;-65
2021/12/12 12:05:00;;;;;;;9.00;4.10;;;;;;;;;;5000338;28;20036;-68
2021/12/12 12:07:45;;;;;;;9.05;5.30;;;;;;;;;;5011971;28;20582;-73
2021/12/12 12:10:36;;;;;;;9.63;5.07;;;;;;;;;;5014881;28;20034;-72
2021/12/12 12:13:32;;;;;;;11.63;4.60;;;;;;;;;;5011667;28;20412;-73
2021/12/12 12:16:01;;;;;;;11.13;4.43;;;;;;;;;;5013471;28;20034;-74
2021/12/12 12:18:50;;;;;;;7.65;4.45;;;;;;;;;;5012487;28;20076;-72
2021/12/12 12:21:24;;;;;;;9.13;4.13;;;;;;;;;;5010163;28;20120;-73
2021/12/12 12:26:51;;;;;;;7.30;3.63;;;;;;;;;;4992886;28;20113;-70
2021/12/12 12:29:32;;;;;;;8.48;4.22;;;;;;;;;;4993591;28;20038;-71
2021/12/12 12:32:04;;;;;;;11.43;4.87;;;;;;;;;;4993267;28;20058;-72
2021/12/12 12:34:49;;;;;;;7.68;3.63;;;;;;;;;;4992858;28;20414;-71
2021/12/12 12:37:30;;;;;;;7.35;3.67;;;;;;;;;;5011813;28;20029;-71
2021/12/12 12:40:15;;;;;;;7.57;3.28;;;;;;;;;;5012964;28;20029;-72
2021/12/12 12:42:59;;;;;;;6.55;3.60;;;;;;;;;;5012373;28;20469;-71
2021/12/12 12:45:48;;;;;;;5.78;3.10;;;;;;;;;;5012530;28;20037;-71
2021/12/12 12:48:33;;;;;;;6.03;2.97;;;;;;;;;;5012885;28;20051;-71
2021/12/12 12:51:05;;;;;;;8.48;3.45;;;;;;;;;;5012103;28;20041;-71
2021/12/12 12:53:50;;;;;;;5.65;2.83;;;;;;;;;;5012014;28;20033;-71
2021/12/12 12:56:22;;;;;;;6.15;3.22;;;;;;;;;;5012795;28;20393;-71
2021/12/12 12:58:47;;;;;;;;;;;;;;;;;;5013104;28;20382;-72
2021/12/12 13:01:18;;;;;;;4.80;3.05;;;;;;;;;;5012773;28;20003;-72
2021/12/12 13:04:02;;;;;;;4.97;2.90;;;;;;;;;;5012011;28;20026;-72
2021/12/12 13:06:47;;;;;;;5.60;2.88;;;;;;;;;;5004914;28;20029;-72
2021/12/12 13:09:29;;;;;;;6.82;3.30;;;;;;;;;;5012490;28;20490;-73
2021/12/12 13:12:01;;;;;;;5.60;3.45;;;;;;;;;;5012825;28;20353;-71
2021/12/12 13:14:46;;;;;;;5.35;3.10;;;;;;;;;;5011956;28;20030;-71
2021/12/12 13:17:20;;;;;;;7.53;3.00;;;;;;;;;;5012584;28;20459;-70
2021/12/12 13:20:05;;;;;;;5.80;2.60;;;;;;;;;;5011649;28;20022;-70
2021/12/12 13:22:37;;;;;;;6.25;2.78;;;;;;;;;;5011795;28;20530;-72
2021/12/12 13:25:06;;;;;;;;;;;;;;;;;;5012949;28;20033;-71
2021/12/12 13:30:29;;;;;;;5.43;2.55;;;;;;;;;;5012637;28;20041;-72
2021/12/12 13:33:21;;;;;;;4.82;2.75;;;;;;;;;;5012629;28;20022;-71
2021/12/12 13:36:00;;;;;;;3.75;2.17;;;;;;;;;;5010750;28;20113;-72
2021/12/12 13:38:30;;;;;;;2.97;2.22;;;;;;;;;;5011837;28;20026;-71
2021/12/12 13:40:59;;;;;;;4.05;2.42;;;;;;;;;;5012721;28;20021;-72
2021/12/12 13:43:31;;;;;;;4.13;2.70;;;;;;;;;;5011840;28;20026;-69
2021/12/12 13:46:10;;;;;;;4.20;2.47;;;;;;;;;;5015647;28;20022;-72
2021/12/12 13:48:48;;;;;;;3.95;2.55;;;;;;;;;;5015743;28;20033;-71
2021/12/12 13:51:17;;;;;;;3.50;1.80;;;;;;;;;;5016059;28;20483;-72
2021/12/12 13:53:43;;;;;;;4.95;2.13;;;;;;;;;;5015424;28;20092;-71
2021/12/12 13:56:22;;;;;;;5.13;2.88;;;;;;;;;;5015511;28;20116;-71
2021/12/12 13:58:50;;;;;;;4.10;1.95;;;;;;;;;;5014295;28;20419;-72
2021/12/12 14:01:20;;;;;;;3.50;2.10;;;;;;;;;;5014153;28;20030;-71
2021/12/12 14:03:53;;;;;;;3.83;2.08;;;;;;;;;;5014088;28;20022;-71
2021/12/12 14:06:21;;;;;;;3.38;1.77;;;;;;;;;;5012623;28;20436;-72
2021/12/12 14:08:52;;;;;;;4.57;1.85;;;;;;;;;;5014105;28;20030;-72
2021/12/12 14:11:27;;;;;;;3.28;2.42;;;;;;;;;;5014775;28;20025;-72
2021/12/12 14:13:54;;;;;;;4.20;2.08;;;;;;;;;;5014192;28;20029;-72
2021/12/12 14:16:27;;;;;;;3.95;2.03;;;;;;;;;;5014641;28;20048;-72
2021/12/12 14:19:00;;;;;;;3.15;2.20;;;;;;;;;;5014562;28;20414;-72
2021/12/12 14:21:26;;;;;;;4.75;1.80;;;;;;;;;;5013830;28;20374;-68
2021/12/12 14:23:53;;;;;;;2.47;1.83;;;;;;;;;;5014447;28;20037;-72
2021/12/12 14:26:22;;;;;;;3.42;2.05;;;;;;;;;;5012767;28;20058;-71
2021/12/12 14:28:50;;;;;;;3.75;2.10;;;;;;;;;;5013724;28;20042;-71
2021/12/12 14:31:20;;;;;;;3.60;1.80;;;;;;;;;;5014313;28;20076;-72
2021/12/12 14:33:48;;;;;;;3.45;1.90;;;;;;;;;;5013466;28;20025;-72
2021/12/12 14:36:20;;;;;;;3.45;1.63;;;;;;;;;;5013958;28;20030;-72
2021/12/12 14:38:47;;;;;;;3.63;1.50;;;;;;;;;;5013562;28;20079;-72
2021/12/12 14:41:13;;;;;;;2.65;1.52;;;;;;;;;;5014162;28;20029;-71
2021/12/12 14:43:43;;;;;;;3.45;1.70;;;;;;;;;;5013659;28;20030;-71
2021/12/12 14:46:19;;;;;;;3.38;1.63;;;;;;;;;;5012508;28;20025;-71
2021/12/12 14:48:56;;;;;;;2.45;1.38;;;;;;;;;;5013269;28;20398;-70
2021/12/12 14:51:27;;;;;;;1.98;1.40;;;;;;;;;;5013789;28;20057;-72
2021/12/12 14:53:54;;;;;;;2.17;1.60;;;;;;;;;;5013178;28;20025;-70
2021/12/12 14:56:26;;;;;;;4.55;2.33;;;;;;;;;;4975814;28;1096805;-71
2021/12/12 14:58:56;;;;;;;3.88;1.58;;;;;;;;;;5014507;28;20073;-76
2021/12/12 15:01:28;;;;;;;3.33;1.60;;;;;;;;;;5015061;28;20030;-69
2021/12/12 15:03:57;;;;;;;3.00;1.50;;;;;;;;;;5015024;28;20029;-68
2021/12/12 15:06:28;;;;;;;3.33;1.58;;;;;;;;;;5014488;28;20109;-68
2021/12/12 15:08:54;;;;;;;4.00;1.70;;;;;;;;;;5014992;28;20105;-67
2021/12/12 15:11:25;;;;;;;3.80;2.03;;;;;;;;;;5014637;28;20108;-68
2021/12/12 15:13:52;;;;;;;3.08;1.77;;;;;;;;;;5014723;28;20026;-68
2021/12/12 15:16:29;;;;;;;3.00;1.67;;;;;;;;;;5014817;28;20068;-68
2021/12/12 15:18:56;;;;;;;3.15;1.90;;;;;;;;;;5014805;28;20471;-68
2021/12/12 15:21:36;;;;;;;2.92;1.60;;;;;;;;;;5014651;28;20371;-68
2021/12/12 15:24:05;;;;;;;3.58;1.60;;;;;;;;;;5014589;28;20486;-68